Time;durP1;ratioP1;P1;durP2;ratioP2;P2;SDS_P1;SDS_P2;PMS_P1;PMS_P2;Temp;Humidity;BMP_temperature;BMP_pressure;BME280_temperature;BME280_humidity;BME280_pressure;Samples;Min_cycle;Max_cycle;Signal;HPM_P1;HPM_P2
2022/01/07 00:00:16;;;;;;;11.03;5.17;;;-0.20;99.90;;;;;;5093038;28;20184;-66
2022/01/07 00:02:47;;;;;;;13.27;5.40;;;-0.20;99.90;;;;;;5079569;28;20589;-66
2022/01/07 00:05:14;;;;;;;14.00;5.30;;;-0.20;99.90;;;;;;5092312;28;20237;-66
2022/01/07 00:07:40;;;;;;;11.80;5.43;;;-0.20;99.90;;;;;;5093214;28;20173;-66
2022/01/07 00:10:07;;;;;;;10.63;5.30;;;-0.20;99.90;;;;;;5092817;28;20205;-66
2022/01/07 00:12:33;;;;;;;8.30;4.93;;;-0.20;99.90;;;;;;5093072;28;20215;-66
2022/01/07 00:14:59;;;;;;;11.53;5.13;;;-0.20;99.90;;;;;;5092437;28;21459;-66
2022/01/07 00:17:25;;;;;;;9.40;4.83;;;-0.30;99.90;;;;;;5093118;28;20187;-67
2022/01/07 00:19:50;;;;;;;14.90;6.30;;;-0.30;99.90;;;;;;5089040;28;20648;-66
2022/01/07 00:22:16;;;;;;;12.07;5.13;;;-0.30;99.90;;;;;;5087256;28;20212;-66
2022/01/07 00:24:42;;;;;;;12.00;5.10;;;-0.30;99.90;;;;;;5091723;28;20201;-67
2022/01/07 00:27:08;;;;;;;11.27;4.90;;;-0.30;99.90;;;;;;5092684;28;20180;-66
2022/01/07 00:29:34;;;;;;;9.53;4.30;;;-0.30;99.90;;;;;;5092860;28;20513;-67
2022/01/07 00:31:59;;;;;;;7.20;3.73;;;-0.30;99.90;;;;;;5092259;28;20215;-67
2022/01/07 00:34:25;;;;;;;9.30;4.27;;;-0.30;99.90;;;;;;5092519;28;20781;-67
2022/01/07 00:36:50;;;;;;;11.27;4.33;;;-0.30;99.90;;;;;;5092801;28;20195;-67
2022/01/07 00:39:16;;;;;;;9.40;4.50;;;-0.30;99.90;;;;;;5092573;28;20547;-67
2022/01/07 00:41:41;;;;;;;11.13;4.70;;;-0.30;99.90;;;;;;5092685;28;20181;-65
2022/01/07 00:44:07;;;;;;;9.90;4.23;;;-0.30;99.90;;;;;;5091197;28;20554;-65
2022/01/07 00:46:32;;;;;;;9.50;4.07;;;-0.30;99.90;;;;;;5092753;28;20653;-65
2022/01/07 00:48:58;;;;;;;5.40;3.50;;;-0.30;99.90;;;;;;5091749;28;20616;-65
2022/01/07 00:51:23;;;;;;;6.97;3.60;;;-0.40;99.90;;;;;;5090934;28;20203;-65
2022/01/07 00:53:49;;;;;;;6.60;3.40;;;-0.40;99.90;;;;;;5092191;28;20279;-65
2022/01/07 00:56:15;;;;;;;9.83;3.53;;;-0.40;99.90;;;;;;5092275;28;20186;-65
2022/01/07 00:58:40;;;;;;;7.10;3.43;;;-0.40;99.90;;;;;;5092172;28;20228;-65
2022/01/07 01:01:06;;;;;;;7.57;2.97;;;-0.40;99.90;;;;;;5092429;28;20554;-65
2022/01/07 01:03:31;;;;;;;6.83;3.07;;;-0.50;99.90;;;;;;5092336;28;20184;-65
2022/01/07 01:05:58;;;;;;;6.73;3.30;;;-0.50;99.90;;;;;;5092082;28;20567;-65
2022/01/07 01:08:25;;;;;;;6.73;3.47;;;-0.50;99.90;;;;;;5091932;28;20207;-65
2022/01/07 01:10:51;;;;;;;10.77;3.50;;;-0.50;99.90;;;;;;5092044;28;20231;-66
2022/01/07 01:13:16;;;;;;;4.50;2.73;;;-0.50;99.90;;;;;;5092188;28;20658;-65
2022/01/07 01:15:42;;;;;;;10.03;3.60;;;-0.50;99.90;;;;;;5092295;28;20172;-65
2022/01/07 01:18:07;;;;;;;5.80;3.50;;;-0.50;99.90;;;;;;5091732;28;20179;-66
2022/01/07 01:20:33;;;;;;;8.17;3.33;;;-0.50;99.90;;;;;;5091651;28;20248;-67
2022/01/07 01:22:59;;;;;;;9.37;3.70;;;-0.50;99.90;;;;;;5091348;28;20583;-66
2022/01/07 01:25:25;;;;;;;11.90;4.33;;;-0.50;99.90;;;;;;5092105;28;20583;-66
2022/01/07 01:27:50;;;;;;;6.73;4.30;;;-0.50;99.90;;;;;;5091560;28;20311;-66
2022/01/07 01:30:17;;;;;;;8.27;4.97;;;-0.50;99.90;;;;;;5092180;28;20188;-66
2022/01/07 01:32:47;;;;;;;9.33;5.00;;;-0.50;99.90;;;;;;5091247;28;20211;-66
2022/01/07 01:35:14;;;;;;;11.87;6.20;;;-0.50;99.90;;;;;;5091853;28;20187;-65
2022/01/07 01:37:40;;;;;;;12.00;6.20;;;-0.50;99.90;;;;;;5091261;28;20213;-65
2022/01/07 01:40:08;;;;;;;17.23;6.40;;;-0.50;99.90;;;;;;5090430;28;20191;-66
2022/01/07 01:42:34;;;;;;;13.43;5.93;;;-0.50;99.90;;;;;;5091824;28;20215;-66
2022/01/07 01:45:00;;;;;;;17.07;6.77;;;-0.50;99.90;;;;;;5091597;28;20208;-66
2022/01/07 01:47:25;;;;;;;12.17;5.87;;;-0.60;99.90;;;;;;5090066;28;20184;-65
2022/01/07 01:49:51;;;;;;;14.33;6.50;;;-0.50;99.90;;;;;;5090663;28;20180;-65
2022/01/07 01:52:16;;;;;;;13.70;6.50;;;-0.50;99.90;;;;;;5090333;28;20610;-65
2022/01/07 01:54:43;;;;;;;13.93;6.47;;;-0.50;99.90;;;;;;5091600;28;20655;-66
2022/01/07 01:57:10;;;;;;;11.87;6.43;;;-0.50;99.90;;;;;;5089548;28;20237;-65
2022/01/07 01:59:35;;;;;;;14.83;6.90;;;-0.50;99.90;;;;;;5092463;28;20227;-65
2022/01/07 02:02:01;;;;;;;10.47;5.83;;;-0.50;99.90;;;;;;5095736;28;20180;-65
2022/01/07 02:04:28;;;;;;;11.80;5.73;;;-0.50;99.90;;;;;;5095801;28;20188;-65
2022/01/07 02:06:54;;;;;;;14.83;5.90;;;-0.50;99.90;;;;;;5095580;28;20230;-65
2022/01/07 02:09:25;;;;;;;12.70;6.17;;;-0.50;99.90;;;;;;5095579;28;20217;-65
2022/01/07 02:11:51;;;;;;;12.03;5.73;;;-0.50;99.90;;;;;;5094940;28;20243;-65
2022/01/07 02:14:16;;;;;;;13.57;6.27;;;-0.50;99.90;;;;;;5095404;28;20223;-65
2022/01/07 02:16:42;;;;;;;10.73;5.70;;;-0.50;99.90;;;;;;5095524;28;20176;-65
2022/01/07 02:19:07;;;;;;;11.73;5.73;;;-0.50;99.90;;;;;;5094268;28;20647;-65
2022/01/07 02:21:37;;;;;;;14.03;6.27;;;-0.50;99.90;;;;;;5085952;28;20233;-66
2022/01/07 02:24:03;;;;;;;11.13;6.07;;;-0.50;99.90;;;;;;5095197;28;20267;-65
2022/01/07 02:26:33;;;;;;;13.67;6.57;;;-0.50;99.90;;;;;;5094971;28;20508;-66
2022/01/07 02:28:59;;;;;;;13.90;6.73;;;-0.50;99.90;;;;;;5094160;28;20184;-65
2022/01/07 02:31:25;;;;;;;16.37;6.87;;;-0.50;99.90;;;;;;5094888;28;20277;-65
2022/01/07 02:33:50;;;;;;;13.43;6.70;;;-0.50;99.90;;;;;;5094959;28;20218;-65
2022/01/07 02:36:16;;;;;;;14.20;6.47;;;-0.50;99.90;;;;;;5094966;28;20174;-65
2022/01/07 02:38:42;;;;;;;15.33;6.40;;;-0.50;99.90;;;;;;5093419;28;20184;-66
2022/01/07 02:41:07;;;;;;;17.70;6.90;;;-0.50;99.90;;;;;;5094704;28;20176;-66
2022/01/07 02:43:33;;;;;;;16.93;6.53;;;-0.50;99.90;;;;;;5093828;28;20184;-67
2022/01/07 02:45:59;;;;;;;16.37;6.87;;;-0.50;99.90;;;;;;5095026;28;20208;-66
2022/01/07 02:48:24;;;;;;;11.80;6.30;;;-0.60;99.90;;;;;;5094890;28;20275;-66
2022/01/07 02:50:50;;;;;;;10.73;6.20;;;-0.50;99.90;;;;;;5094579;28;20538;-66
2022/01/07 02:53:15;;;;;;;15.53;5.90;;;-0.50;99.90;;;;;;5094607;28;20194;-66
2022/01/07 02:55:41;;;;;;;14.27;6.07;;;-0.50;99.90;;;;;;5094725;28;20191;-66
2022/01/07 02:58:08;;;;;;;13.60;5.93;;;-0.60;99.90;;;;;;5092660;28;20227;-66
2022/01/07 03:00:34;;;;;;;11.33;5.33;;;-0.60;99.90;;;;;;5093285;28;20191;-66
2022/01/07 03:03:01;;;;;;;10.60;4.90;;;-0.50;99.90;;;;;;5094159;28;20192;-66
2022/01/07 03:05:27;;;;;;;9.77;4.80;;;-0.60;99.90;;;;;;5094504;28;20188;-66
2022/01/07 03:07:53;;;;;;;8.67;4.70;;;-0.60;99.90;;;;;;5094819;28;20240;-66
2022/01/07 03:10:27;;;;;;;8.17;4.33;;;-0.60;99.90;;;;;;5094309;28;20603;-66
2022/01/07 03:12:56;;;;;;;12.50;4.67;;;-0.60;99.90;;;;;;5093988;28;20218;-65
2022/01/07 03:15:21;;;;;;;11.83;4.30;;;-0.60;99.90;;;;;;5080058;28;20809;-66
2022/01/07 03:17:47;;;;;;;10.70;4.13;;;-0.60;99.90;;;;;;5085522;28;20245;-66
2022/01/07 03:20:15;;;;;;;7.07;3.57;;;-0.60;99.90;;;;;;5082334;28;20184;-66
2022/01/07 03:22:42;;;;;;;10.67;3.70;;;-0.60;99.90;;;;;;5091155;28;20179;-66
2022/01/07 03:25:08;;;;;;;12.90;4.10;;;-0.60;99.90;;;;;;5089638;28;20191;-66
2022/01/07 03:27:34;;;;;;;7.97;4.03;;;-0.50;99.90;;;;;;5088233;28;20639;-66
2022/01/07 03:30:00;;;;;;;7.80;4.10;;;-0.50;99.90;;;;;;5092317;28;20271;-66
2022/01/07 03:32:25;;;;;;;10.23;3.67;;;-0.50;99.90;;;;;;5087557;28;20266;-66
2022/01/07 03:34:52;;;;;;;10.50;3.93;;;-0.50;99.90;;;;;;5088482;28;20211;-66
2022/01/07 03:37:18;;;;;;;8.40;4.20;;;-0.50;99.90;;;;;;5091606;28;20967;-66
2022/01/07 03:39:43;;;;;;;10.07;4.57;;;-0.60;99.90;;;;;;5093706;28;20271;-66
2022/01/07 03:42:09;;;;;;;9.27;4.40;;;-0.50;99.90;;;;;;5089438;28;20249;-67
2022/01/07 03:44:35;;;;;;;6.63;3.70;;;-0.60;99.90;;;;;;5093312;28;20263;-68
2022/01/07 03:47:00;;;;;;;10.10;3.70;;;-0.60;99.90;;;;;;5093363;28;20202;-66
2022/01/07 03:49:26;;;;;;;12.73;3.87;;;-0.60;99.90;;;;;;5094390;28;20207;-66
2022/01/07 03:51:51;;;;;;;9.93;3.30;;;-0.60;99.90;;;;;;5093293;28;20196;-66
2022/01/07 03:54:17;;;;;;;8.87;3.33;;;-0.60;99.90;;;;;;5093916;28;20267;-67
2022/01/07 03:56:42;;;;;;;11.07;4.27;;;-0.60;99.90;;;;;;5093455;28;20190;-67
2022/01/07 03:59:08;;;;;;;8.17;3.73;;;-0.60;99.90;;;;;;5093506;28;20231;-67
2022/01/07 04:01:34;;;;;;;10.50;4.10;;;-0.60;99.90;;;;;;5093393;28;20669;-66
2022/01/07 04:03:59;;;;;;;9.13;4.23;;;-0.50;99.90;;;;;;5093750;28;20704;-66
2022/01/07 04:06:25;;;;;;;8.07;4.27;;;-0.50;99.90;;;;;;5092326;28;20180;-67
2022/01/07 04:08:50;;;;;;;10.23;4.67;;;-0.50;99.90;;;;;;5092968;28;20183;-67
2022/01/07 04:11:17;;;;;;;13.50;5.37;;;-0.60;99.90;;;;;;5093423;28;20299;-68
2022/01/07 04:13:44;;;;;;;11.93;5.77;;;-0.60;99.90;;;;;;5092808;28;20642;-67
2022/01/07 04:16:10;;;;;;;18.57;6.10;;;-0.50;99.90;;;;;;5092199;28;20176;-67
2022/01/07 04:18:36;;;;;;;20.17;7.33;;;-0.50;99.90;;;;;;5093383;28;20172;-67
2022/01/07 04:21:01;;;;;;;22.60;7.33;;;-0.50;99.90;;;;;;5091064;28;20176;-67
2022/01/07 04:23:27;;;;;;;17.27;8.00;;;-0.50;99.90;;;;;;5092485;28;20541;-68
2022/01/07 04:25:52;;;;;;;20.97;7.73;;;-0.50;99.90;;;;;;5093217;28;20639;-67
2022/01/07 04:28:19;;;;;;;18.07;7.30;;;-0.50;99.90;;;;;;5092525;28;20525;-67
2022/01/07 04:30:45;;;;;;;20.33;7.63;;;-0.50;99.90;;;;;;5092970;28;20207;-67
2022/01/07 04:33:14;;;;;;;18.47;6.90;;;-0.50;99.90;;;;;;5092569;28;20293;-68
2022/01/07 04:35:40;;;;;;;21.03;7.77;;;-0.50;99.90;;;;;;5093098;28;20180;-68
2022/01/07 04:38:07;;;;;;;18.23;7.60;;;-0.50;99.90;;;;;;5092585;28;20180;-67
2022/01/07 04:40:34;;;;;;;26.13;8.40;;;-0.50;99.90;;;;;;5092437;28;20249;-68
2022/01/07 04:43:01;;;;;;;18.80;7.50;;;-0.50;99.90;;;;;;5092571;28;20387;-68
2022/01/07 04:45:27;;;;;;;18.37;7.67;;;-0.50;99.90;;;;;;5092790;28;20271;-67
2022/01/07 04:47:52;;;;;;;18.90;7.10;;;-0.50;99.90;;;;;;5092632;28;20255;-68
2022/01/07 04:50:20;;;;;;;14.57;6.17;;;-0.50;99.90;;;;;;5092682;28;20198;-68
2022/01/07 04:52:46;;;;;;;14.10;6.40;;;-0.50;99.90;;;;;;5092255;28;20302;-68
2022/01/07 04:55:17;;;;;;;15.13;5.67;;;-0.40;99.90;;;;;;5092853;28;20251;-68
2022/01/07 04:57:43;;;;;;;9.33;4.83;;;-0.50;99.90;;;;;;5091984;28;20219;-68
2022/01/07 05:00:10;;;;;;;13.63;5.07;;;-0.50;99.90;;;;;;5092323;28;20187;-68
2022/01/07 05:02:35;;;;;;;7.73;4.60;;;-0.50;99.90;;;;;;5092414;28;20219;-68
2022/01/07 05:05:01;;;;;;;9.63;4.23;;;-0.40;99.90;;;;;;5092418;28;20199;-67
2022/01/07 05:07:26;;;;;;;9.50;4.00;;;-0.40;99.90;;;;;;5092389;28;20212;-67
2022/01/07 05:09:52;;;;;;;10.03;4.17;;;-0.30;99.90;;;;;;5092187;28;20183;-68
2022/01/07 05:12:17;;;;;;;8.23;3.87;;;-0.30;99.90;;;;;;5092569;28;20212;-68
2022/01/07 05:14:43;;;;;;;9.13;3.87;;;-0.30;99.90;;;;;;5091580;28;20183;-68
2022/01/07 05:17:08;;;;;;;8.93;4.00;;;-0.20;99.90;;;;;;5092267;28;20279;-67
2022/01/07 05:19:34;;;;;;;10.23;3.70;;;-0.20;99.90;;;;;;5092189;28;20191;-67
2022/01/07 05:22:00;;;;;;;6.70;3.53;;;-0.20;99.90;;;;;;5092125;28;20198;-67
2022/01/07 05:24:25;;;;;;;6.53;3.50;;;-0.10;99.90;;;;;;5091720;28;20183;-67
2022/01/07 05:26:51;;;;;;;10.67;4.00;;;-0.10;99.90;;;;;;5092343;28;20183;-67
2022/01/07 05:29:16;;;;;;;5.73;3.40;;;0.00;99.90;;;;;;5091490;28;20176;-67
2022/01/07 05:31:42;;;;;;;7.57;4.07;;;-0.10;99.90;;;;;;5091764;28;20211;-67
2022/01/07 05:34:07;;;;;;;6.60;3.57;;;-0.10;99.90;;;;;;5091826;28;20237;-67
2022/01/07 05:36:33;;;;;;;10.03;4.00;;;0.00;99.90;;;;;;5092409;28;20172;-67
2022/01/07 05:38:58;;;;;;;11.23;3.80;;;0.00;99.90;;;;;;5090729;28;20804;-67
2022/01/07 05:41:24;;;;;;;10.50;3.33;;;0.00;99.90;;;;;;5091656;28;20176;-67
2022/01/07 05:43:49;;;;;;;6.67;2.93;;;0.00;99.90;;;;;;5091449;28;20192;-67
2022/01/07 05:46:16;;;;;;;5.97;3.43;;;0.10;99.90;;;;;;5090164;28;20168;-68
2022/01/07 05:48:45;;;;;;;7.60;3.10;;;0.10;99.90;;;;;;5091978;28;20182;-68
2022/01/07 05:51:12;;;;;;;4.00;3.13;;;0.20;99.90;;;;;;5090409;28;20314;-67
2022/01/07 05:53:37;;;;;;;9.00;3.87;;;0.20;99.90;;;;;;5091758;28;20183;-67
2022/01/07 05:56:04;;;;;;;9.40;3.90;;;0.30;99.90;;;;;;5091523;28;20183;-67
2022/01/07 05:58:31;;;;;;;10.93;4.07;;;0.30;99.90;;;;;;5091430;28;20231;-67
2022/01/07 06:00:56;;;;;;;7.23;3.67;;;0.30;99.90;;;;;;5091587;28;20290;-68
2022/01/07 06:03:22;;;;;;;8.00;4.20;;;0.30;99.90;;;;;;5091968;28;20656;-68
2022/01/07 06:05:47;;;;;;;7.50;4.47;;;0.40;99.90;;;;;;5091622;28;20176;-67
2022/01/07 06:08:13;;;;;;;8.67;4.50;;;0.40;99.90;;;;;;5090366;28;20539;-68
2022/01/07 06:10:38;;;;;;;6.60;3.57;;;0.40;99.90;;;;;;5092037;28;20172;-68
2022/01/07 06:13:04;;;;;;;6.07;3.80;;;0.40;99.90;;;;;;5091164;28;20237;-68
2022/01/07 06:15:29;;;;;;;7.03;3.20;;;0.40;99.90;;;;;;5091295;28;20605;-68
2022/01/07 06:17:55;;;;;;;6.00;3.23;;;0.40;99.90;;;;;;5091203;28;20702;-68
2022/01/07 06:20:21;;;;;;;6.63;3.10;;;0.40;99.90;;;;;;5084567;28;20267;-68
2022/01/07 06:22:47;;;;;;;6.77;3.30;;;0.40;99.90;;;;;;5091926;28;20314;-68
2022/01/07 06:25:13;;;;;;;9.33;3.17;;;0.40;99.90;;;;;;5091266;28;20272;-68
2022/01/07 06:27:38;;;;;;;5.10;3.30;;;0.40;99.90;;;;;;5091021;28;20260;-68
2022/01/07 06:30:08;;;;;;;8.30;4.10;;;0.40;99.90;;;;;;5090965;28;20711;-67
2022/01/07 06:32:33;;;;;;;5.37;3.07;;;0.40;99.90;;;;;;5091217;28;20750;-68
2022/01/07 06:34:59;;;;;;;5.77;2.93;;;0.30;99.90;;;;;;5091073;28;20251;-67
2022/01/07 06:37:25;;;;;;;6.60;3.10;;;0.40;99.90;;;;;;5091622;28;20184;-67
2022/01/07 06:39:50;;;;;;;4.57;2.90;;;0.40;99.90;;;;;;5091272;28;20263;-67
2022/01/07 06:42:16;;;;;;;5.73;2.73;;;0.40;99.90;;;;;;5091079;28;20184;-68
2022/01/07 06:44:41;;;;;;;5.33;3.00;;;0.40;99.90;;;;;;5090963;28;20180;-68
2022/01/07 06:47:07;;;;;;;8.60;3.27;;;0.40;99.90;;;;;;5094445;28;20586;-68
2022/01/07 06:49:33;;;;;;;4.10;2.67;;;0.40;99.90;;;;;;5095106;28;20719;-68
2022/01/07 06:51:58;;;;;;;6.67;2.87;;;0.40;99.90;;;;;;5094802;28;20290;-68
2022/01/07 06:54:25;;;;;;;11.23;4.33;;;0.40;99.90;;;;;;5094601;28;20268;-68
2022/01/07 06:56:50;;;;;;;11.77;5.40;;;0.40;99.90;;;;;;5095231;28;20175;-68
2022/01/07 06:59:16;;;;;;;13.03;6.77;;;0.40;99.90;;;;;;5093058;28;20212;-68
2022/01/07 07:01:45;;;;;;;15.83;6.27;;;0.40;99.90;;;;;;5095084;28;20222;-68
2022/01/07 07:04:10;;;;;;;23.40;8.03;;;0.40;99.90;;;;;;5094154;28;20168;-68
2022/01/07 07:06:36;;;;;;;18.47;7.70;;;0.50;99.90;;;;;;5094522;28;20249;-68
2022/01/07 07:09:03;;;;;;;14.20;5.60;;;0.50;99.90;;;;;;5094692;28;20210;-68
2022/01/07 07:11:29;;;;;;;13.20;5.13;;;0.50;99.90;;;;;;5094690;28;20295;-68
2022/01/07 07:13:54;;;;;;;13.23;5.80;;;0.50;99.90;;;;;;5094005;28;20274;-68
2022/01/07 07:16:20;;;;;;;11.47;4.70;;;0.50;99.90;;;;;;5094218;28;20213;-68
2022/01/07 07:18:46;;;;;;;9.50;5.07;;;0.60;99.90;;;;;;5094602;28;20188;-68
2022/01/07 07:21:12;;;;;;;10.73;5.50;;;0.60;99.90;;;;;;5092925;28;20181;-68
2022/01/07 07:23:37;;;;;;;14.03;6.03;;;0.60;99.90;;;;;;5094608;28;20191;-68
2022/01/07 07:26:03;;;;;;;17.03;7.50;;;0.60;99.90;;;;;;5094078;28;20180;-68
2022/01/07 07:28:28;;;;;;;15.20;6.67;;;0.60;99.90;;;;;;5094172;28;20187;-68
2022/01/07 07:30:57;;;;;;;16.20;7.17;;;0.70;99.90;;;;;;5093978;28;20168;-68
2022/01/07 07:38:50;;;;;;;10.83;4.70;;;0.70;99.90;;;;;;5094423;28;20225;-68
2022/01/07 07:41:16;;;;;;;15.20;5.37;;;0.70;99.90;;;;;;5093684;28;20184;-69
2022/01/07 07:43:42;;;;;;;12.33;4.87;;;0.70;99.90;;;;;;5093972;28;20692;-67
2022/01/07 07:46:07;;;;;;;14.30;5.10;;;0.80;99.90;;;;;;5093565;28;20753;-65
2022/01/07 07:48:33;;;;;;;11.03;4.03;;;0.80;99.90;;;;;;5093871;28;20280;-71
2022/01/07 07:50:59;;;;;;;4.93;3.30;;;0.80;99.90;;;;;;5093828;28;20180;-68
2022/01/07 07:53:25;;;;;;;4.20;2.80;;;0.90;99.90;;;;;;5093518;28;20623;-67
2022/01/07 07:55:53;;;;;;;6.07;3.53;;;0.90;99.90;;;;;;5092585;28;20183;-63
2022/01/07 07:58:23;;;;;;;7.00;3.67;;;0.90;99.90;;;;;;5092046;28;20251;-62
2022/01/07 08:00:49;;;;;;;5.07;2.93;;;0.90;99.90;;;;;;5093118;28;20198;-70
2022/01/07 08:03:15;;;;;;;9.20;3.77;;;0.90;99.90;;;;;;5093523;28;20602;-61
2022/01/07 08:05:40;;;;;;;8.50;3.63;;;0.90;99.90;;;;;;5093229;28;20184;-65
2022/01/07 08:08:06;;;;;;;4.20;3.20;;;0.90;99.90;;;;;;5093288;28;20573;-67
2022/01/07 08:10:32;;;;;;;7.83;3.53;;;0.90;99.90;;;;;;5093533;28;20263;-67
2022/01/07 08:18:14;;;;;;;5.23;2.73;;;1.00;99.90;;;;;;5093057;28;20192;-65
2022/01/07 08:20:40;;;;;;;5.53;3.30;;;1.10;99.90;;;;;;5090884;28;20180;-65
2022/01/07 08:23:05;;;;;;;6.80;3.20;;;1.10;99.90;;;;;;5093082;28;20207;-65
2022/01/07 08:25:32;;;;;;;5.10;3.10;;;1.10;99.90;;;;;;5092823;28;20180;-64
2022/01/07 08:28:02;;;;;;;6.77;3.57;;;1.20;99.90;;;;;;5093221;28;20287;-64
2022/01/07 08:30:35;;;;;;;6.53;3.50;;;1.20;99.90;;;;;;5092624;28;20188;-65
2022/01/07 08:35:45;;;;;;;6.67;3.40;;;1.20;99.90;;;;;;5092893;28;20269;-64
2022/01/07 08:38:10;;;;;;;7.13;3.07;;;1.20;99.90;;;;;;5092255;28;20670;-64
2022/01/07 08:40:36;;;;;;;6.97;2.97;;;1.30;99.90;;;;;;5092470;28;20214;-65
2022/01/07 08:43:01;;;;;;;5.40;3.13;;;1.30;99.90;;;;;;5092633;28;20176;-64
2022/01/07 08:45:27;;;;;;;6.47;3.00;;;1.40;99.90;;;;;;5072576;28;20181;-64
2022/01/07 08:47:53;;;;;;;7.40;4.00;;;1.40;99.90;;;;;;5082785;28;20188;-63
2022/01/07 08:50:18;;;;;;;5.43;3.13;;;1.50;99.90;;;;;;5091177;28;20242;-64
2022/01/07 08:52:44;;;;;;;5.63;2.97;;;1.50;99.90;;;;;;5092305;28;20697;-64
2022/01/07 08:55:10;;;;;;;3.97;2.80;;;1.60;99.90;;;;;;5092230;28;20176;-63
2022/01/07 08:57:36;;;;;;;10.87;4.07;;;1.70;99.90;;;;;;5091743;28;20285;-64
2022/01/07 09:00:02;;;;;;;8.87;4.17;;;1.70;99.90;;;;;;5091978;28;20580;-63
2022/01/07 09:02:28;;;;;;;4.83;3.20;;;1.70;99.90;;;;;;5089793;28;20254;-63
2022/01/07 09:04:54;;;;;;;5.23;3.13;;;1.80;99.90;;;;;;5092381;28;20180;-63
2022/01/07 09:07:19;;;;;;;5.27;3.47;;;1.80;99.90;;;;;;5092134;28;20256;-64
2022/01/07 09:09:45;;;;;;;4.03;2.77;;;1.80;99.90;;;;;;5104520;28;20641;-64
2022/01/07 09:12:10;;;;;;;7.40;3.50;;;1.80;99.90;;;;;;5092092;28;20725;-63
2022/01/07 09:14:36;;;;;;;5.33;3.40;;;1.80;99.90;;;;;;5092086;28;20547;-64
2022/01/07 09:17:02;;;;;;;9.57;3.33;;;1.80;99.90;;;;;;5091451;28;20176;-63
2022/01/07 09:19:28;;;;;;;6.67;3.80;;;1.80;99.90;;;;;;5091719;28;20200;-61
2022/01/07 09:21:55;;;;;;;7.93;3.13;;;1.80;99.90;;;;;;5085756;28;20183;-60
2022/01/07 09:24:22;;;;;;;3.97;2.67;;;1.90;99.90;;;;;;5092082;28;20177;-60
2022/01/07 09:26:48;;;;;;;6.10;3.17;;;1.90;99.90;;;;;;5097508;28;20191;-61
2022/01/07 09:29:14;;;;;;;5.30;3.13;;;1.90;99.90;;;;;;5080179;28;20535;-65
2022/01/07 09:31:39;;;;;;;4.70;2.80;;;1.90;99.90;;;;;;5091795;28;20203;-65
2022/01/07 09:34:06;;;;;;;5.43;2.77;;;1.90;99.90;;;;;;5091385;28;20222;-65
2022/01/07 09:36:32;;;;;;;9.47;3.13;;;1.80;99.90;;;;;;5073468;28;20180;-65
2022/01/07 09:38:58;;;;;;;7.40;3.20;;;1.80;99.90;;;;;;5091075;28;20312;-65
2022/01/07 09:41:24;;;;;;;9.47;3.37;;;1.80;99.90;;;;;;5090367;28;20643;-66
2022/01/07 09:43:49;;;;;;;3.63;2.80;;;2.10;99.90;;;;;;5091678;28;20229;-67
2022/01/07 09:46:16;;;;;;;4.30;2.77;;;2.20;99.90;;;;;;5090942;28;20183;-67
2022/01/07 09:48:42;;;;;;;3.73;2.47;;;2.30;99.90;;;;;;5091545;28;20203;-66
2022/01/07 09:51:09;;;;;;;6.40;2.80;;;2.20;99.90;;;;;;5090904;28;20245;-67
2022/01/07 09:53:34;;;;;;;4.97;2.70;;;2.20;99.90;;;;;;5089388;28;20192;-68
2022/01/07 09:56:00;;;;;;;5.87;2.73;;;2.20;99.90;;;;;;5089846;28;20184;-67
2022/01/07 09:58:26;;;;;;;5.97;3.00;;;2.20;99.90;;;;;;5090784;28;20238;-67
2022/01/07 10:01:00;;;;;;;4.20;2.50;;;2.20;99.90;;;;;;5091655;28;20172;-67
2022/01/07 10:03:38;;;;;;;6.63;2.90;;;2.20;99.90;;;;;;5091790;28;20178;-67
2022/01/07 10:06:17;;;;;;;5.30;2.80;;;2.30;99.90;;;;;;5090774;28;20175;-66
2022/01/07 10:08:42;;;;;;;5.50;3.15;;;2.30;99.90;;;;;;5091729;28;20189;-66
2022/01/07 10:11:18;;;;;;;6.33;3.53;;;2.40;99.90;;;;;;5090462;28;20267;-63
2022/01/07 10:13:46;;;;;;;5.87;3.10;;;2.50;99.90;;;;;;5087744;28;20271;-66
2022/01/07 10:16:15;;;;;;;4.13;2.50;;;2.50;99.90;;;;;;5091151;28;20180;-65
2022/01/07 10:18:41;;;;;;;21.25;9.50;;;2.60;99.90;;;;;;5090624;28;20635;-64
2022/01/07 10:21:08;;;;;;;5.70;3.67;;;3.00;99.90;;;;;;5083145;28;20199;-66
2022/01/07 10:23:34;;;;;;;4.32;2.97;;;3.80;99.90;;;;;;5095057;28;20180;-67
2022/01/07 10:25:59;;;;;;;4.50;2.75;;;4.20;99.90;;;;;;5095514;28;20532;-67
2022/01/07 10:28:32;;;;;;;5.20;2.92;;;4.10;99.90;;;;;;5095049;28;20262;-67
2022/01/07 10:31:02;;;;;;;3.85;2.83;;;4.00;99.90;;;;;;5095539;28;20251;-66
2022/01/07 10:33:39;;;;;;;5.25;2.85;;;3.80;99.90;;;;;;5094614;28;20215;-69
2022/01/07 10:36:08;;;;;;;5.10;3.40;;;3.60;99.90;;;;;;5095397;28;20172;-67
2022/01/07 10:38:36;;;;;;;6.38;3.28;;;3.30;99.90;;;;;;5095307;28;20530;-68
2022/01/07 10:41:03;;;;;;;6.15;3.55;;;2.90;99.90;;;;;;5095054;28;20259;-67
2022/01/07 10:43:32;;;;;;;11.30;4.80;;;2.60;99.90;;;;;;5094814;28;20187;-68
2022/01/07 10:46:08;;;;;;;6.95;3.75;;;2.40;99.90;;;;;;5094784;28;20184;-67
2022/01/07 10:48:41;;;;;;;5.10;3.57;;;2.30;99.90;;;;;;5094171;28;20179;-68
2022/01/07 10:51:09;;;;;;;17.55;8.20;;;2.20;99.90;;;;;;5093055;28;20294;-66
2022/01/07 10:53:35;;;;;;;17.63;9.07;;;2.20;99.90;;;;;;5094624;28;20184;-66
2022/01/07 10:56:04;;;;;;;15.68;7.00;;;3.00;99.90;;;;;;5094325;28;20257;-66
2022/01/07 10:58:45;;;;;;;12.32;6.90;;;3.90;99.90;;;;;;5094562;28;20661;-66
2022/01/07 11:01:20;;;;;;;9.85;5.57;;;4.60;99.90;;;;;;5092524;28;20187;-67
2022/01/07 11:03:46;;;;;;;7.95;4.45;;;4.70;99.90;;;;;;5093956;28;20190;-67
2022/01/07 11:06:12;;;;;;;4.38;3.30;;;4.30;99.90;;;;;;5094003;28;20208;-67
2022/01/07 11:08:39;;;;;;;6.38;3.25;;;4.00;99.90;;;;;;5093679;28;20262;-65
2022/01/07 11:11:05;;;;;;;5.78;3.55;;;3.70;99.90;;;;;;5093970;28;20180;-64
2022/01/07 11:13:31;;;;;;;4.82;3.40;;;3.40;99.90;;;;;;5094028;28;20561;-65
2022/01/07 11:15:57;;;;;;;6.82;4.20;;;3.10;99.90;;;;;;5094014;28;20184;-68
2022/01/07 11:18:22;;;;;;;6.60;4.00;;;3.00;99.90;;;;;;5093149;28;20250;-65
2022/01/07 11:20:48;;;;;;;7.93;4.90;;;2.90;99.90;;;;;;5084217;28;20217;-64
2022/01/07 11:23:13;;;;;;;8.82;4.88;;;2.80;99.90;;;;;;5093441;28;20211;-64
2022/01/07 11:25:39;;;;;;;8.10;5.28;;;2.70;99.90;;;;;;5094095;28;20540;-64
2022/01/07 11:28:05;;;;;;;7.70;5.07;;;2.70;99.90;;;;;;5093313;28;20217;-64
2022/01/07 11:30:35;;;;;;;9.45;5.60;;;2.60;99.90;;;;;;5093336;28;20183;-64
2022/01/07 11:33:15;;;;;;;8.50;4.88;;;2.60;99.90;;;;;;5092359;28;20296;-66
2022/01/07 11:35:44;;;;;;;9.00;5.17;;;2.50;99.90;;;;;;5093525;28;20704;-67
2022/01/07 11:38:15;;;;;;;7.18;5.57;;;2.50;99.90;;;;;;5075189;28;20195;-66
2022/01/07 11:40:40;;;;;;;7.47;4.82;;;2.50;99.90;;;;;;5092418;28;20188;-64
2022/01/07 11:43:24;;;;;;;6.70;4.22;;;2.50;99.90;;;;;;5092735;28;20534;-64
2022/01/07 11:45:50;;;;;;;7.95;5.65;;;2.50;99.90;;;;;;5094118;28;20176;-64
2022/01/07 11:48:18;;;;;;;7.85;4.75;;;2.50;99.90;;;;;;5092923;28;20191;-70
2022/01/07 11:51:07;;;;;;;16.80;7.93;;;2.50;99.90;;;;;;5090418;28;20176;-62
2022/01/07 11:53:36;;;;;;;8.00;4.95;;;2.60;99.90;;;;;;5089812;28;20222;-64
2022/01/07 11:56:03;;;;;;;8.68;4.32;;;2.60;99.90;;;;;;5092697;28;20179;-65
2022/01/07 11:58:41;;;;;;;7.35;3.85;;;2.80;99.90;;;;;;5098492;28;20224;-63
2022/01/07 12:01:21;;;;;;;5.97;3.25;;;2.80;99.90;;;;;;5093404;28;20541;-66
2022/01/07 12:03:48;;;;;;;6.55;3.53;;;2.90;99.90;;;;;;5091736;28;20195;-64
2022/01/07 12:11:29;;;;;;;8.10;3.90;;;3.00;99.90;;;;;;5082516;28;20648;-66
2022/01/07 12:13:55;;;;;;;7.18;3.80;;;3.00;99.90;;;;;;5088082;28;20237;-67
2022/01/07 12:16:23;;;;;;;7.07;4.10;;;2.90;99.90;;;;;;5092210;28;20183;-66
2022/01/07 12:18:48;;;;;;;6.28;4.07;;;2.80;99.90;;;;;;5093309;28;20270;-66
2022/01/07 12:21:14;;;;;;;5.40;4.07;;;2.80;99.90;;;;;;5104193;28;20255;-66
2022/01/07 12:23:41;;;;;;;5.57;3.87;;;2.80;99.90;;;;;;5093049;28;20606;-68
2022/01/07 12:26:07;;;;;;;7.10;4.57;;;2.90;99.90;;;;;;5091960;28;20168;-66
2022/01/07 12:28:45;;;;;;;8.63;4.70;;;2.80;99.90;;;;;;5092305;28;20184;-65
2022/01/07 12:31:12;;;;;;;5.73;4.07;;;2.90;99.90;;;;;;5092549;28;20184;-66
2022/01/07 12:33:59;;;;;;;5.80;4.23;;;2.90;99.90;;;;;;5092023;28;20216;-63
2022/01/07 12:36:30;;;;;;;7.73;4.00;;;2.90;99.90;;;;;;5091983;28;20206;-64
2022/01/07 12:39:06;;;;;;;6.53;3.40;;;2.90;99.90;;;;;;5092247;28;20298;-63
2022/01/07 12:41:31;;;;;;;5.27;3.40;;;2.80;99.90;;;;;;5092622;28;20179;-66
2022/01/07 12:44:08;;;;;;;7.93;3.83;;;2.90;99.90;;;;;;5090511;28;20186;-68
2022/01/07 12:46:35;;;;;;;7.07;3.70;;;2.90;99.90;;;;;;5092390;28;20167;-68
2022/01/07 12:49:00;;;;;;;18.77;8.33;;;2.90;99.90;;;;;;5092033;28;20190;-69
2022/01/07 12:51:29;;;;;;;29.27;14.32;;;3.00;99.90;;;;;;5092240;28;20262;-69
2022/01/07 12:53:59;;;;;;;14.05;6.75;;;3.70;99.90;;;;;;5092590;28;20188;-68
2022/01/07 12:56:30;;;;;;;10.13;5.65;;;4.50;99.90;;;;;;5091460;28;20203;-67
2022/01/07 12:58:57;;;;;;;13.25;5.78;;;4.80;99.90;;;;;;5092461;28;20223;-70
2022/01/07 13:01:28;;;;;;;26.77;8.45;;;4.60;99.90;;;;;;5091933;28;20255;-69
2022/01/07 13:04:22;;;;;;;20.05;8.02;;;4.40;99.90;;;;;;5091726;28;20211;-69